Time;durP1;ratioP1;P1;durP2;ratioP2;P2;SDS_P1;SDS_P2;PMS_P1;PMS_P2;Temp;Humidity;BMP_temperature;BMP_pressure;BME280_temperature;BME280_humidity;BME280_pressure;Samples;Min_cycle;Max_cycle;Signal;HPM_P1;HPM_P2
2022/11/24 00:01:59;;;;;;;6.43;2.10;;;9.80;99.90;;;;;;5055082;28;20189;-63
2022/11/24 00:04:25;;;;;;;11.73;2.30;;;9.80;99.90;;;;;;5060055;28;20197;-61
2022/11/24 00:06:52;;;;;;;4.27;2.03;;;9.90;99.90;;;;;;5100477;28;20272;-61
2022/11/24 00:09:18;;;;;;;7.97;2.30;;;9.80;99.90;;;;;;5069257;28;20193;-61
2022/11/24 00:11:44;;;;;;;4.60;2.13;;;10.00;99.90;;;;;;5057526;28;20194;-62
2022/11/24 00:14:10;;;;;;;5.10;1.80;;;9.90;99.90;;;;;;5055806;28;20224;-62
2022/11/24 00:16:37;;;;;;;6.53;2.10;;;10.00;99.90;;;;;;5066317;28;20209;-62
2022/11/24 00:19:07;;;;;;;14.97;2.87;;;10.00;99.90;;;;;;5057536;28;20622;-62
2022/11/24 00:21:34;;;;;;;5.00;1.73;;;10.10;99.90;;;;;;5062493;28;20181;-62
2022/11/24 00:23:59;;;;;;;6.43;2.27;;;10.00;99.90;;;;;;5071837;28;20189;-62
2022/11/24 00:26:28;;;;;;;5.23;2.20;;;9.90;99.90;;;;;;5068783;28;20194;-61
2022/11/24 00:28:56;;;;;;;10.73;2.30;;;9.90;99.90;;;;;;5061145;28;20661;-62
2022/11/24 00:31:24;;;;;;;8.83;3.20;;;9.90;99.90;;;;;;5065331;28;20182;-63
2022/11/24 00:33:52;;;;;;;4.97;2.50;;;9.90;99.90;;;;;;5054214;28;20320;-62
2022/11/24 00:36:19;;;;;;;11.17;2.63;;;9.90;99.90;;;;;;5085515;28;20194;-62
2022/11/24 00:38:45;;;;;;;6.63;1.80;;;10.00;99.90;;;;;;5068508;28;20681;-62
2022/11/24 00:41:12;;;;;;;6.40;2.73;;;9.90;99.90;;;;;;5063297;28;20185;-64
2022/11/24 00:43:37;;;;;;;7.43;2.67;;;9.80;99.90;;;;;;5062400;28;20680;-62
2022/11/24 00:46:03;;;;;;;13.80;2.57;;;9.90;99.90;;;;;;5064806;28;20220;-62
2022/11/24 00:48:29;;;;;;;13.50;2.23;;;9.90;99.90;;;;;;5067057;28;20272;-63
2022/11/24 00:51:04;;;;;;;3.47;1.57;;;10.00;99.90;;;;;;5063750;28;20193;-62
2022/11/24 00:53:30;;;;;;;8.10;3.83;;;10.10;99.90;;;;;;5054000;28;20209;-62
2022/11/24 00:55:56;;;;;;;12.77;2.67;;;10.20;99.90;;;;;;5058304;28;20200;-63
2022/11/24 00:58:22;;;;;;;9.47;2.87;;;10.20;99.90;;;;;;5068531;28;20272;-63
2022/11/24 01:00:48;;;;;;;8.10;2.77;;;10.20;99.90;;;;;;5054257;28;20200;-63
2022/11/24 01:03:15;;;;;;;4.30;2.50;;;10.10;99.90;;;;;;5052766;28;20220;-63
2022/11/24 01:05:41;;;;;;;5.93;2.20;;;10.20;99.90;;;;;;5058884;28;20185;-62
2022/11/24 01:08:07;;;;;;;5.50;2.60;;;10.20;99.90;;;;;;5061659;28;20194;-63
2022/11/24 01:10:34;;;;;;;6.03;3.20;;;10.20;99.90;;;;;;5066575;28;20555;-64
2022/11/24 01:12:59;;;;;;;15.50;2.70;;;10.20;99.90;;;;;;5059767;28;20609;-63
2022/11/24 01:15:26;;;;;;;6.47;3.27;;;10.20;99.90;;;;;;5065768;28;20219;-64
2022/11/24 01:17:52;;;;;;;11.73;2.80;;;10.30;99.90;;;;;;5063901;28;20675;-62
2022/11/24 01:20:18;;;;;;;7.60;2.60;;;10.20;99.90;;;;;;5053904;28;20190;-63
2022/11/24 01:22:43;;;;;;;16.03;2.30;;;10.10;99.90;;;;;;5072777;28;20300;-63
2022/11/24 01:25:10;;;;;;;6.90;2.10;;;10.00;99.90;;;;;;5057601;28;20196;-63
2022/11/24 01:27:37;;;;;;;7.13;2.60;;;9.90;99.90;;;;;;5057601;28;20186;-63
2022/11/24 01:30:04;;;;;;;9.67;2.37;;;9.80;99.90;;;;;;5055975;28;20194;-63
2022/11/24 01:32:32;;;;;;;5.27;2.30;;;9.80;99.90;;;;;;5059961;28;20275;-63
2022/11/24 01:35:01;;;;;;;16.53;3.53;;;9.80;99.90;;;;;;5051152;28;20686;-63
2022/11/24 01:37:26;;;;;;;7.53;2.47;;;9.90;99.90;;;;;;5053353;28;20185;-62
2022/11/24 01:39:52;;;;;;;12.67;2.93;;;9.90;99.90;;;;;;5055670;28;20185;-62
2022/11/24 01:42:17;;;;;;;11.63;2.33;;;9.90;99.90;;;;;;5060543;28;20198;-62
2022/11/24 01:44:43;;;;;;;11.97;3.13;;;9.90;99.90;;;;;;5052623;28;21940;-63
2022/11/24 01:47:37;;;;;;;11.93;2.57;;;10.00;99.90;;;;;;5061160;28;20199;-63
2022/11/24 01:50:04;;;;;;;5.07;2.20;;;10.10;99.90;;;;;;5051884;28;20221;-62
2022/11/24 01:52:37;;;;;;;8.07;2.97;;;10.00;99.90;;;;;;5053599;28;20182;-63
2022/11/24 01:55:08;;;;;;;6.70;2.27;;;10.10;99.90;;;;;;5054278;28;20206;-63
2022/11/24 01:57:42;;;;;;;12.30;3.43;;;10.20;99.90;;;;;;5069465;28;20191;-62
2022/11/24 02:00:11;;;;;;;12.33;3.23;;;10.40;99.90;;;;;;5055810;28;20196;-62
2022/11/24 02:02:37;;;;;;;12.13;3.10;;;10.30;99.90;;;;;;5085084;28;20194;-63
2022/11/24 02:05:08;;;;;;;10.67;2.93;;;10.20;99.90;;;;;;5061565;28;20589;-64
2022/11/24 02:07:35;;;;;;;9.77;2.30;;;10.20;99.90;;;;;;5068562;28;20208;-63
2022/11/24 02:10:10;;;;;;;9.80;3.20;;;10.20;99.90;;;;;;5084999;28;20201;-63
2022/11/24 02:12:38;;;;;;;8.40;2.00;;;10.30;99.90;;;;;;5050855;28;20198;-62
2022/11/24 02:15:04;;;;;;;11.27;2.83;;;10.30;99.90;;;;;;5061551;28;20205;-63
2022/11/24 02:17:30;;;;;;;9.83;2.37;;;10.30;99.90;;;;;;5053433;28;20541;-63
2022/11/24 02:19:59;;;;;;;9.47;2.13;;;10.20;99.90;;;;;;5061542;28;20189;-62
2022/11/24 02:22:43;;;;;;;11.10;3.03;;;10.30;99.90;;;;;;5060378;28;20556;-63
2022/11/24 02:25:52;;;;;;;8.77;3.83;;;10.40;99.90;;;;;;5062263;28;20205;-63
2022/11/24 02:28:21;;;;;;;7.20;1.83;;;10.40;99.90;;;;;;5055946;28;20651;-63
2022/11/24 02:30:48;;;;;;;15.47;2.87;;;10.40;99.90;;;;;;5055972;28;20186;-62
2022/11/24 02:33:14;;;;;;;7.03;2.17;;;10.50;99.90;;;;;;5037289;28;20189;-63
2022/11/24 02:35:40;;;;;;;11.17;4.33;;;10.50;99.90;;;;;;5054578;28;20197;-63
2022/11/24 02:38:05;;;;;;;27.60;3.43;;;10.60;99.90;;;;;;5052304;28;20591;-63
2022/11/24 02:40:32;;;;;;;10.77;2.07;;;10.70;99.90;;;;;;5055991;28;20190;-63
2022/11/24 02:43:04;;;;;;;6.53;2.30;;;10.80;99.90;;;;;;5058517;28;20268;-63
2022/11/24 02:45:30;;;;;;;6.47;1.90;;;10.70;99.90;;;;;;5056163;28;20188;-63
2022/11/24 02:47:56;;;;;;;12.73;3.60;;;10.60;99.90;;;;;;5061879;28;20192;-63
2022/11/24 02:50:22;;;;;;;9.70;2.53;;;10.60;99.90;;;;;;5060427;28;20198;-63
2022/11/24 02:52:48;;;;;;;3.28;1.98;;;10.60;99.90;;;;;;5083917;28;20622;-63
2022/11/24 02:55:14;;;;;;;13.20;2.85;;;10.50;99.90;;;;;;5070948;28;20670;-63
2022/11/24 02:57:39;;;;;;;15.32;3.60;;;10.50;99.90;;;;;;5067127;28;20184;-63
2022/11/24 03:00:06;;;;;;;5.82;1.75;;;10.50;99.90;;;;;;5051158;28;20191;-63
2022/11/24 03:02:31;;;;;;;4.53;2.03;;;10.50;99.90;;;;;;5060863;28;20190;-63
2022/11/24 03:04:57;;;;;;;7.28;2.05;;;10.50;99.90;;;;;;5051088;28;20244;-63
2022/11/24 03:07:22;;;;;;;8.45;2.08;;;10.50;99.90;;;;;;5058026;28;20595;-63
2022/11/24 03:09:48;;;;;;;8.02;2.50;;;10.50;99.90;;;;;;5090610;28;20194;-63
2022/11/24 03:12:14;;;;;;;10.25;2.65;;;10.50;99.90;;;;;;5061001;28;20228;-63
2022/11/24 03:14:39;;;;;;;7.60;2.30;;;10.40;99.90;;;;;;5055966;28;20621;-63
2022/11/24 03:17:05;;;;;;;8.10;2.03;;;10.40;99.90;;;;;;5051241;28;20734;-63
2022/11/24 03:19:32;;;;;;;8.13;2.17;;;10.40;99.90;;;;;;5052280;28;20190;-63
2022/11/24 03:21:57;;;;;;;17.20;3.00;;;10.30;99.90;;;;;;5055485;28;20257;-63
2022/11/24 03:24:23;;;;;;;13.40;2.70;;;10.10;99.90;;;;;;5060191;28;20292;-62
2022/11/24 03:26:48;;;;;;;4.33;2.23;;;10.10;99.90;;;;;;5091302;28;20186;-63
2022/11/24 03:29:15;;;;;;;8.80;2.00;;;10.10;99.90;;;;;;5064265;28;20185;-62
2022/11/24 03:31:41;;;;;;;8.63;2.60;;;10.20;99.90;;;;;;5060833;28;20222;-63
2022/11/24 03:34:06;;;;;;;6.70;3.90;;;10.10;99.90;;;;;;5070668;28;20205;-63
2022/11/24 03:36:32;;;;;;;13.37;2.27;;;10.10;99.90;;;;;;5090263;28;20225;-63
2022/11/24 03:38:58;;;;;;;10.77;2.10;;;10.10;99.90;;;;;;5068625;28;20181;-63
2022/11/24 03:41:23;;;;;;;9.80;2.60;;;10.00;99.90;;;;;;5061599;28;20184;-63
2022/11/24 03:43:49;;;;;;;10.63;2.33;;;10.10;99.90;;;;;;5068093;28;20213;-63
2022/11/24 03:46:14;;;;;;;7.17;2.57;;;10.20;99.90;;;;;;5055389;28;20213;-62
2022/11/24 03:48:40;;;;;;;10.47;2.17;;;10.30;99.90;;;;;;5054845;28;20239;-62
2022/11/24 03:51:06;;;;;;;4.23;1.50;;;10.30;99.90;;;;;;5057428;28;20198;-62
2022/11/24 03:53:32;;;;;;;7.17;2.17;;;10.20;99.90;;;;;;5067292;28;20206;-62
2022/11/24 03:55:59;;;;;;;8.67;1.20;;;10.10;99.90;;;;;;5068556;28;20200;-62
2022/11/24 03:58:24;;;;;;;7.00;1.80;;;9.90;99.90;;;;;;5069671;28;20209;-62
2022/11/24 04:00:52;;;;;;;6.60;1.67;;;9.80;99.90;;;;;;5057642;28;20279;-62
2022/11/24 04:03:18;;;;;;;2.93;1.13;;;9.70;99.90;;;;;;5073775;28;20208;-63
2022/11/24 04:05:44;;;;;;;3.73;1.13;;;9.60;99.90;;;;;;5061466;28;20213;-63
2022/11/24 04:08:10;;;;;;;10.43;1.70;;;9.50;99.90;;;;;;5064782;28;20192;-63
2022/11/24 04:10:37;;;;;;;6.07;1.33;;;9.60;99.90;;;;;;5071713;28;20185;-62
2022/11/24 04:13:08;;;;;;;4.03;1.20;;;9.50;99.90;;;;;;5068325;28;20516;-62
2022/11/24 04:15:38;;;;;;;3.57;0.90;;;9.40;99.90;;;;;;5063107;28;20205;-62
2022/11/24 04:18:04;;;;;;;5.67;1.20;;;9.40;99.90;;;;;;5064876;28;20555;-63
2022/11/24 04:20:30;;;;;;;3.27;1.10;;;9.40;99.90;;;;;;5074101;28;20243;-62
2022/11/24 04:22:55;;;;;;;4.90;1.27;;;9.40;99.90;;;;;;5063737;28;20251;-63
2022/11/24 04:25:21;;;;;;;2.77;0.80;;;9.30;99.90;;;;;;5071975;28;20196;-64
2022/11/24 04:27:51;;;;;;;3.10;1.13;;;9.30;99.90;;;;;;5054839;28;20194;-63
2022/11/24 04:30:17;;;;;;;2.13;0.80;;;9.30;99.90;;;;;;5057342;28;20257;-62
2022/11/24 04:32:43;;;;;;;2.53;1.00;;;9.30;99.90;;;;;;5069975;28;20185;-62
2022/11/24 04:35:09;;;;;;;1.50;0.93;;;9.40;99.90;;;;;;5056994;28;20620;-62
2022/11/24 04:37:35;;;;;;;3.00;0.97;;;9.40;99.90;;;;;;5061475;28;20193;-62
2022/11/24 04:40:00;;;;;;;0.90;0.70;;;9.30;99.90;;;;;;5057482;28;20197;-63
2022/11/24 04:42:26;;;;;;;3.47;0.70;;;9.30;99.90;;;;;;5053881;28;20239;-63
2022/11/24 04:44:52;;;;;;;2.93;0.50;;;9.20;99.90;;;;;;5054877;28;20573;-63
2022/11/24 04:47:20;;;;;;;1.50;0.57;;;9.30;99.90;;;;;;5070144;28;20272;-63
2022/11/24 04:49:47;;;;;;;1.00;0.93;;;9.20;99.90;;;;;;5062961;28;20186;-63
2022/11/24 04:52:14;;;;;;;3.30;0.97;;;9.20;99.90;;;;;;5055816;28;20174;-63
2022/11/24 04:54:40;;;;;;;4.63;1.20;;;9.20;99.90;;;;;;5073362;28;20239;-62
2022/11/24 04:57:05;;;;;;;3.00;0.50;;;9.30;99.90;;;;;;5056819;28;20275;-62
2022/11/24 04:59:31;;;;;;;4.70;0.77;;;9.20;99.90;;;;;;5052761;28;20197;-62
2022/11/24 05:01:57;;;;;;;2.57;1.27;;;9.20;99.90;;;;;;5063168;28;20192;-62
2022/11/24 05:04:23;;;;;;;0.90;0.87;;;9.10;99.90;;;;;;5060263;28;20631;-63
2022/11/24 05:06:48;;;;;;;4.83;1.10;;;9.20;99.90;;;;;;5056629;28;20627;-63
2022/11/24 05:09:16;;;;;;;1.97;0.60;;;9.20;99.90;;;;;;5087938;28;20247;-62
2022/11/24 05:11:42;;;;;;;0.97;0.80;;;9.20;99.90;;;;;;5064646;28;20193;-63
2022/11/24 05:14:08;;;;;;;3.27;0.70;;;9.30;99.90;;;;;;5058223;28;20305;-63
2022/11/24 05:16:34;;;;;;;0.83;0.50;;;9.20;99.90;;;;;;5053419;28;20184;-62
2022/11/24 05:19:00;;;;;;;4.00;0.80;;;9.20;99.90;;;;;;5065834;28;20276;-63
2022/11/24 05:21:27;;;;;;;2.80;0.70;;;9.20;99.90;;;;;;5053663;28;20261;-63
2022/11/24 05:23:52;;;;;;;0.87;0.80;;;9.30;99.90;;;;;;5063697;28;20185;-62
2022/11/24 05:26:18;;;;;;;0.47;0.47;;;9.30;99.90;;;;;;5065586;28;20563;-63
2022/11/24 05:28:44;;;;;;;1.50;0.73;;;9.20;99.90;;;;;;5069060;28;20189;-62
2022/11/24 05:31:09;;;;;;;4.27;0.93;;;9.20;99.90;;;;;;5085217;28;20193;-63
2022/11/24 05:33:35;;;;;;;2.00;0.60;;;9.20;99.90;;;;;;5057566;28;20562;-63
2022/11/24 05:36:06;;;;;;;1.60;1.47;;;9.10;99.90;;;;;;5053593;28;20193;-63
2022/11/24 05:38:32;;;;;;;3.13;0.87;;;9.10;99.90;;;;;;5057649;28;20542;-63
2022/11/24 05:41:05;;;;;;;3.13;0.77;;;9.20;99.90;;;;;;5064446;28;20185;-63
2022/11/24 05:43:31;;;;;;;4.83;1.03;;;9.10;99.90;;;;;;5059626;28;20334;-63
2022/11/24 05:46:00;;;;;;;2.53;0.90;;;9.10;99.90;;;;;;5054915;28;20264;-63
2022/11/24 05:48:26;;;;;;;4.03;1.57;;;9.10;99.90;;;;;;5052578;28;20190;-63
2022/11/24 05:50:56;;;;;;;1.20;0.83;;;9.10;99.90;;;;;;5051283;28;20185;-62
2022/11/24 05:53:22;;;;;;;6.90;1.03;;;9.00;99.90;;;;;;5054401;28;20215;-62
2022/11/24 05:55:48;;;;;;;6.40;1.20;;;9.00;99.90;;;;;;5052314;28;20224;-63
2022/11/24 05:58:14;;;;;;;0.70;0.70;;;8.90;99.90;;;;;;5076820;28;20205;-62
2022/11/24 06:00:39;;;;;;;2.57;1.00;;;8.90;99.90;;;;;;5052434;28;20189;-63
2022/11/24 06:03:05;;;;;;;5.03;1.00;;;8.90;99.90;;;;;;5059529;28;20185;-62
2022/11/24 06:05:31;;;;;;;3.57;1.47;;;8.90;99.90;;;;;;5059708;28;20196;-62
2022/11/24 06:07:58;;;;;;;2.17;1.03;;;8.80;99.90;;;;;;5065150;28;20186;-62
2022/11/24 06:10:24;;;;;;;3.07;1.30;;;8.80;99.90;;;;;;5053061;28;20182;-62
2022/11/24 06:12:50;;;;;;;4.27;1.43;;;9.10;99.90;;;;;;5057007;28;20204;-62
2022/11/24 06:15:16;;;;;;;8.03;1.00;;;9.10;99.90;;;;;;5062331;28;20210;-62
2022/11/24 06:17:42;;;;;;;4.53;1.27;;;9.10;99.90;;;;;;5057342;28;20189;-62
2022/11/24 06:20:09;;;;;;;6.20;1.13;;;9.20;99.90;;;;;;5059514;28;20239;-62
2022/11/24 06:22:35;;;;;;;2.97;1.50;;;9.20;99.90;;;;;;5053078;28;20273;-62
2022/11/24 06:25:00;;;;;;;4.83;1.43;;;9.10;99.90;;;;;;5070676;28;20273;-63
2022/11/24 06:27:26;;;;;;;3.37;1.40;;;9.00;99.90;;;;;;5068111;28;20824;-62
2022/11/24 06:29:52;;;;;;;5.07;1.43;;;9.00;99.90;;;;;;5066963;28;20217;-64
2022/11/24 06:32:18;;;;;;;3.80;1.17;;;8.90;99.90;;;;;;5060526;28;20216;-64
2022/11/24 06:34:43;;;;;;;2.23;2.03;;;9.10;99.90;;;;;;5068746;28;20208;-63
2022/11/24 06:37:09;;;;;;;7.93;1.80;;;9.10;99.90;;;;;;5051000;28;20526;-64
2022/11/24 06:39:35;;;;;;;4.83;2.03;;;9.00;99.90;;;;;;5062121;28;20841;-64
2022/11/24 06:42:00;;;;;;;6.37;1.40;;;9.00;99.90;;;;;;5067806;28;20646;-64
2022/11/24 06:44:26;;;;;;;6.50;1.47;;;8.80;99.90;;;;;;5063247;28;20200;-63
2022/11/24 06:46:52;;;;;;;4.13;1.80;;;8.80;99.90;;;;;;5084331;28;20208;-63
2022/11/24 06:49:18;;;;;;;4.80;1.80;;;8.90;99.90;;;;;;5060128;28;20273;-63
2022/11/24 06:51:43;;;;;;;5.67;1.40;;;9.00;99.90;;;;;;5052746;28;20189;-63
2022/11/24 06:54:12;;;;;;;2.90;1.47;;;8.80;99.90;;;;;;5051697;28;20678;-63
2022/11/24 06:56:38;;;;;;;3.97;1.40;;;8.70;99.90;;;;;;5051969;28;20185;-63
2022/11/24 06:59:04;;;;;;;4.80;2.00;;;8.70;99.90;;;;;;5067319;28;20178;-63
2022/11/24 07:01:29;;;;;;;3.67;1.80;;;8.70;99.90;;;;;;5074939;28;20246;-63
2022/11/24 07:03:56;;;;;;;6.03;1.47;;;8.70;99.90;;;;;;5059908;28;20194;-63
2022/11/24 07:06:24;;;;;;;8.73;2.00;;;8.80;99.90;;;;;;5061531;28;20196;-63
2022/11/24 07:08:50;;;;;;;3.67;1.90;;;8.80;99.90;;;;;;5059111;28;20182;-63
2022/11/24 07:11:20;;;;;;;3.23;1.43;;;8.70;99.90;;;;;;5059681;28;20189;-63
2022/11/24 07:13:47;;;;;;;8.00;1.50;;;8.70;99.90;;;;;;5069629;28;20300;-63
2022/11/24 07:16:14;;;;;;;3.57;2.13;;;8.80;99.90;;;;;;5061324;28;20189;-63
2022/11/24 07:18:41;;;;;;;8.17;2.67;;;8.80;99.90;;;;;;5056178;28;20636;-63
2022/11/24 07:21:07;;;;;;;2.80;1.40;;;8.70;99.90;;;;;;5055437;28;20639;-63
2022/11/24 07:23:32;;;;;;;6.67;2.50;;;8.60;99.90;;;;;;5070127;28;20196;-62
2022/11/24 07:26:00;;;;;;;4.77;1.70;;;8.70;99.90;;;;;;5056453;28;20657;-63
2022/11/24 07:28:26;;;;;;;6.70;2.17;;;8.70;99.90;;;;;;5059903;28;20225;-62
2022/11/24 07:30:51;;;;;;;7.17;2.00;;;8.60;99.90;;;;;;5067467;28;20641;-62
2022/11/24 07:33:20;;;;;;;5.30;3.13;;;8.60;99.90;;;;;;5066722;28;20745;-63
2022/11/24 07:35:45;;;;;;;7.97;1.87;;;8.70;99.90;;;;;;5063267;28;20560;-62
2022/11/24 07:38:11;;;;;;;4.37;1.83;;;8.60;99.90;;;;;;5071427;28;20182;-63
2022/11/24 07:40:37;;;;;;;4.60;1.30;;;8.60;99.90;;;;;;5071065;28;20208;-63
2022/11/24 07:43:02;;;;;;;2.77;1.87;;;8.60;99.90;;;;;;5056390;28;20316;-63
2022/11/24 07:45:28;;;;;;;2.00;1.90;;;8.60;99.90;;;;;;5056976;28;20189;-62
2022/11/24 07:47:53;;;;;;;6.53;1.47;;;8.60;99.90;;;;;;5068500;28;20188;-62
2022/11/24 07:50:19;;;;;;;9.17;2.40;;;8.70;99.90;;;;;;5038454;28;20189;-61
2022/11/24 07:52:45;;;;;;;4.43;1.60;;;8.70;99.90;;;;;;5055236;28;20277;-62
2022/11/24 07:55:10;;;;;;;8.60;1.57;;;8.70;99.90;;;;;;5047918;28;20217;-63
2022/11/24 07:57:36;;;;;;;4.10;1.97;;;8.60;99.90;;;;;;5061188;28;20232;-63
2022/11/24 08:00:04;;;;;;;5.00;1.33;;;8.60;99.90;;;;;;5066976;28;20181;-63
2022/11/24 08:02:30;;;;;;;4.03;2.40;;;8.70;99.90;;;;;;5069688;28;20261;-63
2022/11/24 08:04:56;;;;;;;4.40;1.40;;;8.70;99.90;;;;;;5073140;28;20625;-62
2022/11/24 08:07:21;;;;;;;6.40;1.63;;;8.80;99.90;;;;;;5075420;28;20186;-64
2022/11/24 08:09:49;;;;;;;3.37;1.90;;;8.80;99.90;;;;;;5059735;28;20216;-65
2022/11/24 08:12:20;;;;;;;5.47;1.17;;;8.80;99.90;;;;;;5056287;28;20189;-64
2022/11/24 08:14:47;;;;;;;3.73;1.57;;;8.80;99.90;;;;;;5063541;28;20271;-64
2022/11/24 08:17:12;;;;;;;3.80;1.73;;;8.80;99.90;;;;;;5067373;28;20692;-64
2022/11/24 08:19:38;;;;;;;2.00;1.23;;;8.90;99.90;;;;;;5068982;28;20177;-63
2022/11/24 08:22:04;;;;;;;7.93;2.20;;;8.90;99.90;;;;;;5058899;28;20190;-64
2022/11/24 08:24:30;;;;;;;5.97;2.30;;;8.90;99.90;;;;;;5064523;28;20526;-64
2022/11/24 08:26:56;;;;;;;6.47;1.70;;;9.00;99.90;;;;;;5065620;28;20651;-63
2022/11/24 08:29:21;;;;;;;4.13;2.07;;;9.00;99.90;;;;;;5060894;28;20243;-63
2022/11/24 08:31:47;;;;;;;2.77;1.60;;;9.10;99.90;;;;;;5060222;28;20547;-63
2022/11/24 08:34:13;;;;;;;2.70;1.27;;;9.00;99.90;;;;;;5068345;28;20296;-64
2022/11/24 08:36:38;;;;;;;1.83;1.40;;;8.90;99.90;;;;;;5056314;28;20235;-64
2022/11/24 08:39:04;;;;;;;6.47;1.87;;;9.00;99.90;;;;;;5061531;28;20185;-64
2022/11/24 08:41:30;;;;;;;4.53;1.40;;;9.10;99.90;;;;;;5060305;28;20628;-63
2022/11/24 08:43:56;;;;;;;3.67;1.47;;;9.10;99.90;;;;;;5057453;28;20197;-63
2022/11/24 08:46:22;;;;;;;2.30;1.83;;;9.20;99.90;;;;;;5057404;28;20181;-65
2022/11/24 08:48:49;;;;;;;8.10;2.03;;;9.40;99.90;;;;;;5052102;28;20239;-65
2022/11/24 08:51:20;;;;;;;6.23;1.63;;;9.30;99.90;;;;;;5055372;28;20181;-65
2022/11/24 08:53:46;;;;;;;4.53;1.47;;;9.50;99.90;;;;;;5058345;28;20622;-65
2022/11/24 08:56:12;;;;;;;5.67;1.23;;;9.50;99.90;;;;;;5059379;28;20221;-66
2022/11/24 08:58:39;;;;;;;8.00;1.30;;;9.50;99.90;;;;;;5064022;28;20188;-64
2022/11/24 09:01:13;;;;;;;4.27;1.60;;;9.50;99.90;;;;;;5063410;28;20197;-63
2022/11/24 09:03:39;;;;;;;3.53;1.60;;;9.50;99.90;;;;;;5044034;28;20554;-64
2022/11/24 09:06:07;;;;;;;5.33;1.63;;;9.50;99.90;;;;;;5089563;28;20189;-64
2022/11/24 09:08:34;;;;;;;7.33;1.57;;;9.60;99.90;;;;;;5062473;28;20201;-64
2022/11/24 09:11:06;;;;;;;7.70;1.50;;;9.60;99.90;;;;;;5047934;28;20224;-64
2022/11/24 09:13:32;;;;;;;2.17;1.97;;;9.70;99.90;;;;;;5057424;28;20218;-64
2022/11/24 09:16:14;;;;;;;3.53;1.70;;;9.70;99.90;;;;;;5060685;28;20185;-63
2022/11/24 09:18:40;;;;;;;6.93;1.60;;;9.80;99.90;;;;;;5058390;28;20659;-63
2022/11/24 09:21:14;;;;;;;3.13;1.83;;;9.90;99.90;;;;;;5063551;28;20216;-64
2022/11/24 09:23:40;;;;;;;6.33;2.40;;;9.90;99.90;;;;;;5067805;28;20256;-64
2022/11/24 09:26:12;;;;;;;2.83;1.70;;;9.90;99.90;;;;;;5061987;28;20268;-64
2022/11/24 09:28:39;;;;;;;6.63;1.83;;;9.90;99.90;;;;;;5053421;28;20231;-64
2022/11/24 09:31:07;;;;;;;3.57;1.70;;;9.90;99.90;;;;;;5067058;28;20715;-64
2022/11/24 09:33:33;;;;;;;5.80;1.37;;;10.00;99.90;;;;;;5064756;28;20300;-65
2022/11/24 09:35:59;;;;;;;2.70;1.13;;;10.00;99.90;;;;;;5052698;28;20186;-64
2022/11/24 09:38:25;;;;;;;5.13;1.30;;;10.10;99.90;;;;;;5069121;28;20761;-64
2022/11/24 09:40:52;;;;;;;6.07;2.43;;;10.10;99.90;;;;;;5070392;28;20181;-63
2022/11/24 09:43:38;;;;;;;6.03;1.43;;;10.10;99.90;;;;;;5059974;28;20574;-63
2022/11/24 09:46:22;;;;;;;1.57;1.03;;;10.20;99.90;;;;;;5064764;28;20630;-64
2022/11/24 09:48:53;;;;;;;8.75;1.60;;;10.20;99.90;;;;;;5066994;28;20173;-63
2022/11/24 09:51:23;;;;;;;4.83;1.40;;;10.30;99.90;;;;;;5059120;28;20192;-63
2022/11/24 09:54:10;;;;;;;3.70;2.33;;;10.30;99.90;;;;;;5056419;28;20202;-63
2022/11/24 09:56:39;;;;;;;4.10;2.83;;;10.40;99.90;;;;;;5060806;28;20224;-63
2022/11/24 09:59:15;;;;;;;4.57;1.60;;;10.50;99.90;;;;;;5063196;28;20182;-63
2022/11/24 10:01:42;;;;;;;8.83;1.33;;;10.40;99.90;;;;;;5058936;28;20173;-63
2022/11/24 10:04:23;;;;;;;6.50;1.93;;;10.40;99.90;;;;;;5052782;28;20650;-63
2022/11/24 10:07:19;;;;;;;5.53;1.27;;;10.40;99.90;;;;;;5055813;28;20189;-63
2022/11/24 10:10:03;;;;;;;2.85;1.38;;;10.50;99.90;;;;;;5052985;28;20201;-63
2022/11/24 10:13:07;;;;;;;5.50;2.13;;;10.50;99.90;;;;;;5068892;28;20197;-63
2022/11/24 10:15:37;;;;;;;6.60;1.65;;;10.70;99.90;;;;;;5067600;28;20208;-63
2022/11/24 10:18:21;;;;;;;5.03;1.33;;;10.60;99.90;;;;;;5068036;28;20231;-64
2022/11/24 10:21:13;;;;;;;6.88;1.90;;;10.60;99.90;;;;;;5058728;28;20181;-64
2022/11/24 10:23:58;;;;;;;5.15;2.00;;;10.60;99.90;;;;;;5056967;28;20523;-64
2022/11/24 10:26:38;;;;;;;4.78;1.23;;;10.60;99.90;;;;;;5061251;28;20178;-64
2022/11/24 10:29:23;;;;;;;8.80;1.50;;;10.70;99.90;;;;;;5062872;28;20170;-63
2022/11/24 10:31:53;;;;;;;5.65;1.90;;;10.70;99.90;;;;;;5052284;28;20532;-63
2022/11/24 10:34:34;;;;;;;5.15;1.70;;;10.80;99.90;;;;;;5056405;28;20206;-64
2022/11/24 10:37:24;;;;;;;8.77;1.73;;;10.90;99.90;;;;;;5056158;28;20170;-63
2022/11/24 10:40:02;;;;;;;5.97;1.65;;;11.00;99.90;;;;;;5058767;28;20225;-64
2022/11/24 10:42:30;;;;;;;8.00;1.60;;;10.90;99.90;;;;;;5072495;28;20181;-63
2022/11/24 10:45:08;;;;;;;6.45;1.38;;;11.00;99.90;;;;;;5056319;28;20190;-64
2022/11/24 10:47:34;;;;;;;9.30;2.35;;;11.10;99.90;;;;;;5070048;28;20634;-63
2022/11/24 10:50:18;;;;;;;7.32;1.77;;;11.20;99.90;;;;;;5057070;28;20192;-64
2022/11/24 10:52:55;;;;;;;8.95;2.50;;;11.20;99.90;;;;;;5056016;28;20213;-63
2022/11/24 10:55:21;;;;;;;3.65;2.80;;;11.20;99.90;;;;;;5056206;28;20537;-64
2022/11/24 10:57:46;;;;;;;10.90;3.13;;;11.30;99.90;;;;;;5100783;28;20182;-63
2022/11/24 11:00:18;;;;;;;7.65;2.08;;;11.40;99.90;;;;;;5056606;28;20182;-63
2022/11/24 11:02:47;;;;;;;10.23;3.20;;;11.40;99.90;;;;;;5059915;28;20187;-63
2022/11/24 11:05:43;;;;;;;9.38;4.07;;;11.30;99.90;;;;;;5065048;28;20182;-63
2022/11/24 11:08:15;;;;;;;10.30;3.15;;;11.40;99.90;;;;;;5062735;28;20200;-63
2022/11/24 11:10:43;;;;;;;10.98;3.75;;;11.40;99.90;;;;;;5068673;28;20644;-62
2022/11/24 11:13:26;;;;;;;7.55;2.15;;;11.50;99.90;;;;;;5063815;28;20186;-63
2022/11/24 11:15:52;;;;;;;9.60;2.92;;;11.40;99.90;;;;;;5068137;28;20200;-63
2022/11/24 11:18:19;;;;;;;5.55;1.90;;;11.30;99.90;;;;;;5074194;28;20185;-63
2022/11/24 11:20:50;;;;;;;7.68;2.97;;;11.30;99.90;;;;;;5067079;28;20217;-63
2022/11/24 11:23:27;;;;;;;9.38;2.17;;;11.40;99.90;;;;;;5068937;28;20217;-63
2022/11/24 11:26:16;;;;;;;11.45;2.85;;;11.50;99.90;;;;;;5068078;28;20702;-63
2022/11/24 11:29:00;;;;;;;5.15;1.45;;;11.50;99.90;;;;;;5060637;28;20178;-63
2022/11/24 11:31:26;;;;;;;8.20;2.42;;;11.40;99.90;;;;;;5070823;28;20260;-63
2022/11/24 11:34:01;;;;;;;5.07;2.63;;;11.40;99.90;;;;;;5066467;28;20198;-63
2022/11/24 11:36:29;;;;;;;13.68;2.45;;;11.50;99.90;;;;;;5070644;28;20176;-64
2022/11/24 11:38:54;;;;;;;5.53;1.77;;;11.50;99.90;;;;;;5061009;28;20178;-63
2022/11/24 11:41:43;;;;;;;9.27;2.88;;;11.50;99.90;;;;;;5069283;28;20181;-63
2022/11/24 11:44:14;;;;;;;5.93;3.55;;;11.60;99.90;;;;;;5060939;28;20212;-63
2022/11/24 11:46:42;;;;;;;8.98;1.58;;;11.60;99.90;;;;;;5054853;28;20568;-62
2022/11/24 11:49:11;;;;;;;7.35;2.17;;;11.60;99.90;;;;;;5057178;28;20189;-63
2022/11/24 11:51:55;;;;;;;10.30;2.72;;;11.70;99.90;;;;;;5072992;28;20181;-63
2022/11/24 11:54:45;;;;;;;4.50;1.52;;;11.70;99.90;;;;;;5067986;28;20664;-63
2022/11/24 11:57:20;;;;;;;8.20;1.48;;;11.90;99.90;;;;;;5068349;28;20596;-64
2022/11/24 12:00:17;;;;;;;7.25;1.83;;;12.00;99.90;;;;;;5069875;28;20556;-64
2022/11/24 12:03:29;;;;;;;9.00;2.08;;;12.00;99.90;;;;;;5060521;28;20186;-64
2022/11/24 12:05:57;;;;;;;6.07;2.03;;;11.80;99.90;;;;;;5049223;28;20177;-63
2022/11/24 12:08:43;;;;;;;9.10;1.98;;;11.80;99.90;;;;;;5060751;28;20197;-63
2022/11/24 12:11:32;;;;;;;6.85;1.83;;;11.90;99.90;;;;;;5073187;28;20186;-63
2022/11/24 12:14:13;;;;;;;8.25;1.85;;;12.10;99.90;;;;;;5057740;28;20223;-63
2022/11/24 12:16:41;;;;;;;5.55;2.05;;;12.10;99.90;;;;;;5060690;28;20733;-63
2022/11/24 12:19:50;;;;;;;7.82;3.65;;;12.00;99.90;;;;;;5055711;28;20185;-64
2022/11/24 12:22:44;;;;;;;5.28;2.35;;;12.10;99.90;;;;;;5066993;28;20597;-63
2022/11/24 12:25:22;;;;;;;5.82;1.90;;;12.20;99.90;;;;;;5056291;28;20190;-63
2022/11/24 12:28:00;;;;;;;9.75;1.95;;;12.00;99.90;;;;;;5064093;28;20234;-63
2022/11/24 12:30:34;;;;;;;7.15;1.75;;;11.90;99.90;;;;;;5063812;28;20323;-63
2022/11/24 12:33:09;;;;;;;8.02;2.40;;;12.00;99.90;;;;;;5069271;28;20200;-64
2022/11/24 12:35:43;;;;;;;5.07;1.65;;;11.80;99.90;;;;;;5070855;28;20203;-62
2022/11/24 12:38:49;;;;;;;9.43;2.20;;;11.90;99.90;;;;;;5063794;28;20185;-62
2022/11/24 12:41:18;;;;;;;2.33;1.67;;;12.10;99.90;;;;;;5051672;28;20526;-63
2022/11/24 12:43:51;;;;;;;7.90;2.10;;;11.90;99.90;;;;;;5059941;28;20178;-63
2022/11/24 12:46:50;;;;;;;2.67;2.05;;;12.00;99.90;;;;;;5072935;28;20220;-64
2022/11/24 12:49:27;;;;;;;4.20;2.42;;;12.30;99.90;;;;;;5067192;28;20188;-64
2022/11/24 12:52:18;;;;;;;10.23;2.30;;;12.40;99.90;;;;;;5066073;28;20807;-64
2022/11/24 12:54:43;;;;;;;6.03;2.88;;;12.50;99.90;;;;;;5057226;28;20197;-64
2022/11/24 12:57:19;;;;;;;7.72;1.95;;;12.40;99.90;;;;;;5060726;28;20198;-64
2022/11/24 13:00:23;;;;;;;24.58;2.65;;;12.40;99.90;;;;;;5061891;28;20260;-64
2022/11/24 13:03:29;;;;;;;7.47;1.70;;;12.60;99.90;;;;;;5061715;28;20181;-64
2022/11/24 13:06:16;;;;;;;3.33;2.00;;;12.60;99.90;;;;;;5065806;28;20650;-63